sensor_id;sensor_type;location;lat;lon;timestamp;temperature;humidity
68609;SHT31;55581;46.718;7.690;2023-03-15T00:00:40;3.40;86.59
68609;SHT31;55581;46.718;7.690;2023-03-15T00:03:07;3.47;88.29
68609;SHT31;55581;46.718;7.690;2023-03-15T00:05:32;3.44;88.98
68609;SHT31;55581;46.718;7.690;2023-03-15T00:07:58;3.42;87.22
68609;SHT31;55581;46.718;7.690;2023-03-15T00:10:23;3.44;87.42
68609;SHT31;55581;46.718;7.690;2023-03-15T00:12:48;3.50;89.01
68609;SHT31;55581;46.718;7.690;2023-03-15T00:15:14;3.51;89.02
68609;SHT31;55581;46.718;7.690;2023-03-15T00:17:40;3.53;88.97
68609;SHT31;55581;46.718;7.690;2023-03-15T00:20:06;3.60;89.68
68609;SHT31;55581;46.718;7.690;2023-03-15T00:22:34;3.64;89.96
68609;SHT31;55581;46.718;7.690;2023-03-15T00:25:00;3.64;90.16
68609;SHT31;55581;46.718;7.690;2023-03-15T00:27:25;3.60;89.49
68609;SHT31;55581;46.718;7.690;2023-03-15T00:29:51;3.57;89.21
68609;SHT31;55581;46.718;7.690;2023-03-15T00:32:16;3.54;90.76
68609;SHT31;55581;46.718;7.690;2023-03-15T00:34:41;3.59;90.79
68609;SHT31;55581;46.718;7.690;2023-03-15T00:37:16;3.64;90.89
68609;SHT31;55581;46.718;7.690;2023-03-15T00:39:46;3.64;89.31
68609;SHT31;55581;46.718;7.690;2023-03-15T00:42:14;3.64;90.06
68609;SHT31;55581;46.718;7.690;2023-03-15T00:44:42;3.61;90.75
68609;SHT31;55581;46.718;7.690;2023-03-15T00:47:09;3.63;89.77
68609;SHT31;55581;46.718;7.690;2023-03-15T00:49:35;3.61;90.27
68609;SHT31;55581;46.718;7.690;2023-03-15T00:52:01;3.61;91.22
68609;SHT31;55581;46.718;7.690;2023-03-15T00:54:26;3.63;91.21
68609;SHT31;55581;46.718;7.690;2023-03-15T00:56:51;3.64;91.62
68609;SHT31;55581;46.718;7.690;2023-03-15T00:59:17;3.61;90.69
68609;SHT31;55581;46.718;7.690;2023-03-15T01:01:42;3.59;90.83
68609;SHT31;55581;46.718;7.690;2023-03-15T01:04:12;3.60;91.02
68609;SHT31;55581;46.718;7.690;2023-03-15T01:06:39;3.57;90.08
68609;SHT31;55581;46.718;7.690;2023-03-15T01:09:07;3.53;90.84
68609;SHT31;55581;46.718;7.690;2023-03-15T01:11:33;3.57;91.45
68609;SHT31;55581;46.718;7.690;2023-03-15T01:13:59;3.64;92.23
68609;SHT31;55581;46.718;7.690;2023-03-15T01:16:27;3.75;92.61
68609;SHT31;55581;46.718;7.690;2023-03-15T01:18:54;3.81;91.67
68609;SHT31;55581;46.718;7.690;2023-03-15T01:21:22;3.81;91.05
68609;SHT31;55581;46.718;7.690;2023-03-15T01:23:49;3.81;91.16
68609;SHT31;55581;46.718;7.690;2023-03-15T01:26:16;3.81;90.85
68609;SHT31;55581;46.718;7.690;2023-03-15T01:28:42;3.74;89.51
68609;SHT31;55581;46.718;7.690;2023-03-15T01:31:39;3.61;89.93
68609;SHT31;55581;46.718;7.690;2023-03-15T01:34:05;3.54;84.18
68609;SHT31;55581;46.718;7.690;2023-03-15T01:36:30;3.36;82.99
68609;SHT31;55581;46.718;7.690;2023-03-15T01:38:56;2.99;83.65
68609;SHT31;55581;46.718;7.690;2023-03-15T01:41:22;2.75;85.08
68609;SHT31;55581;46.718;7.690;2023-03-15T01:43:49;2.46;86.58
68609;SHT31;55581;46.718;7.690;2023-03-15T01:48:56;2.19;87.68
68609;SHT31;55581;46.718;7.690;2023-03-15T01:51:38;2.20;86.98
68609;SHT31;55581;46.718;7.690;2023-03-15T01:54:27;2.09;88.62
68609;SHT31;55581;46.718;7.690;2023-03-15T01:57:00;2.03;88.46
68609;SHT31;55581;46.718;7.690;2023-03-15T01:59:33;2.05;88.23
68609;SHT31;55581;46.718;7.690;2023-03-15T02:02:02;2.06;89.20
68609;SHT31;55581;46.718;7.690;2023-03-15T02:04:41;1.99;89.36
68609;SHT31;55581;46.718;7.690;2023-03-15T02:07:10;1.98;89.55
68609;SHT31;55581;46.718;7.690;2023-03-15T02:09:56;1.98;90.29
68609;SHT31;55581;46.718;7.690;2023-03-15T02:12:26;1.92;91.60
68609;SHT31;55581;46.718;7.690;2023-03-15T02:14:51;1.86;91.10
68609;SHT31;55581;46.718;7.690;2023-03-15T02:17:21;1.85;90.13
68609;SHT31;55581;46.718;7.690;2023-03-15T02:19:59;1.92;91.36
68609;SHT31;55581;46.718;7.690;2023-03-15T02:27:47;1.98;91.02
68609;SHT31;55581;46.718;7.690;2023-03-15T02:30:12;1.99;91.41
68609;SHT31;55581;46.718;7.690;2023-03-15T02:32:40;2.01;90.67
68609;SHT31;55581;46.718;7.690;2023-03-15T02:35:10;2.01;89.57
68609;SHT31;55581;46.718;7.690;2023-03-15T02:37:36;2.06;90.71
68609;SHT31;55581;46.718;7.690;2023-03-15T02:40:05;2.08;91.42
68609;SHT31;55581;46.718;7.690;2023-03-15T02:42:36;2.06;89.96
68609;SHT31;55581;46.718;7.690;2023-03-15T02:45:05;2.05;89.35
68609;SHT31;55581;46.718;7.690;2023-03-15T02:47:31;2.09;89.53
68609;SHT31;55581;46.718;7.690;2023-03-15T02:49:57;2.13;88.36
68609;SHT31;55581;46.718;7.690;2023-03-15T02:52:24;2.15;89.68
68609;SHT31;55581;46.718;7.690;2023-03-15T02:54:50;2.20;90.14
68609;SHT31;55581;46.718;7.690;2023-03-15T02:57:17;2.22;87.54
68609;SHT31;55581;46.718;7.690;2023-03-15T02:59:43;2.18;88.60
68609;SHT31;55581;46.718;7.690;2023-03-15T03:02:09;2.18;90.23
68609;SHT31;55581;46.718;7.690;2023-03-15T03:04:38;2.25;89.08
68609;SHT31;55581;46.718;7.690;2023-03-15T03:07:04;2.26;88.80
68609;SHT31;55581;46.718;7.690;2023-03-15T03:09:30;2.32;87.08
68609;SHT31;55581;46.718;7.690;2023-03-15T03:11:55;2.26;89.35
68609;SHT31;55581;46.718;7.690;2023-03-15T03:14:21;2.16;90.37
68609;SHT31;55581;46.718;7.690;2023-03-15T03:16:49;2.15;90.44
68609;SHT31;55581;46.718;7.690;2023-03-15T03:19:14;2.06;90.45
68609;SHT31;55581;46.718;7.690;2023-03-15T03:21:40;2.02;89.86
68609;SHT31;55581;46.718;7.690;2023-03-15T03:24:09;2.08;89.96
68609;SHT31;55581;46.718;7.690;2023-03-15T03:26:40;2.01;89.79
68609;SHT31;55581;46.718;7.690;2023-03-15T03:29:10;1.98;89.66
68609;SHT31;55581;46.718;7.690;2023-03-15T03:31:41;2.02;90.99
68609;SHT31;55581;46.718;7.690;2023-03-15T03:34:06;2.01;89.92
68609;SHT31;55581;46.718;7.690;2023-03-15T03:36:34;2.02;90.64
68609;SHT31;55581;46.718;7.690;2023-03-15T03:38:59;2.02;90.58
68609;SHT31;55581;46.718;7.690;2023-03-15T03:41:26;1.99;90.17
68609;SHT31;55581;46.718;7.690;2023-03-15T03:43:51;1.97;91.25
68609;SHT31;55581;46.718;7.690;2023-03-15T03:46:17;2.01;91.72
68609;SHT31;55581;46.718;7.690;2023-03-15T03:48:42;1.97;91.10
68609;SHT31;55581;46.718;7.690;2023-03-15T03:51:08;1.97;90.66
68609;SHT31;55581;46.718;7.690;2023-03-15T03:53:33;2.02;90.96
68609;SHT31;55581;46.718;7.690;2023-03-15T03:55:59;2.08;91.77
68609;SHT31;55581;46.718;7.690;2023-03-15T03:58:28;2.15;92.26
68609;SHT31;55581;46.718;7.690;2023-03-15T04:00:53;2.16;90.66
68609;SHT31;55581;46.718;7.690;2023-03-15T04:03:19;2.12;90.83
68609;SHT31;55581;46.718;7.690;2023-03-15T04:05:52;2.11;91.27
68609;SHT31;55581;46.718;7.690;2023-03-15T04:08:22;2.12;91.31
68609;SHT31;55581;46.718;7.690;2023-03-15T04:10:56;2.03;90.15
68609;SHT31;55581;46.718;7.690;2023-03-15T04:13:22;2.11;89.46
68609;SHT31;55581;46.718;7.690;2023-03-15T04:15:49;2.08;88.47
68609;SHT31;55581;46.718;7.690;2023-03-15T04:18:24;2.02;89.46
68609;SHT31;55581;46.718;7.690;2023-03-15T04:20:49;1.92;91.28
68609;SHT31;55581;46.718;7.690;2023-03-15T04:23:19;1.85;90.95
68609;SHT31;55581;46.718;7.690;2023-03-15T04:25:50;1.89;90.24
68609;SHT31;55581;46.718;7.690;2023-03-15T04:28:16;1.86;90.48
68609;SHT31;55581;46.718;7.690;2023-03-15T04:30:42;1.88;90.59
68609;SHT31;55581;46.718;7.690;2023-03-15T04:33:09;1.95;90.44
68609;SHT31;55581;46.718;7.690;2023-03-15T04:35:36;1.91;91.24
68609;SHT31;55581;46.718;7.690;2023-03-15T04:38:02;1.92;90.98
68609;SHT31;55581;46.718;7.690;2023-03-15T04:40:29;1.92;91.53
68609;SHT31;55581;46.718;7.690;2023-03-15T04:42:55;1.86;92.12
68609;SHT31;55581;46.718;7.690;2023-03-15T04:45:24;1.86;92.06
68609;SHT31;55581;46.718;7.690;2023-03-15T04:47:51;1.88;91.52
68609;SHT31;55581;46.718;7.690;2023-03-15T04:50:17;1.88;91.48
68609;SHT31;55581;46.718;7.690;2023-03-15T04:52:42;1.86;91.18
68609;SHT31;55581;46.718;7.690;2023-03-15T04:55:08;1.79;91.37
68609;SHT31;55581;46.718;7.690;2023-03-15T04:57:34;1.77;91.83
68609;SHT31;55581;46.718;7.690;2023-03-15T05:00:00;1.73;91.74
68609;SHT31;55581;46.718;7.690;2023-03-15T05:02:30;1.73;92.32
68609;SHT31;55581;46.718;7.690;2023-03-15T05:04:56;1.68;91.36
68609;SHT31;55581;46.718;7.690;2023-03-15T05:07:21;1.63;91.59
68609;SHT31;55581;46.718;7.690;2023-03-15T05:09:46;1.54;91.61
68609;SHT31;55581;46.718;7.690;2023-03-15T05:12:12;1.44;91.86
68609;SHT31;55581;46.718;7.690;2023-03-15T05:14:40;1.39;91.71
68609;SHT31;55581;46.718;7.690;2023-03-15T05:17:08;1.44;91.29
68609;SHT31;55581;46.718;7.690;2023-03-15T05:19:33;1.39;92.21
68609;SHT31;55581;46.718;7.690;2023-03-15T05:22:02;1.26;91.95
68609;SHT31;55581;46.718;7.690;2023-03-15T05:24:28;1.25;92.21
68609;SHT31;55581;46.718;7.690;2023-03-15T05:26:54;1.26;91.68
68609;SHT31;55581;46.718;7.690;2023-03-15T05:29:21;1.20;91.33
68609;SHT31;55581;46.718;7.690;2023-03-15T05:31:48;1.18;91.14
68609;SHT31;55581;46.718;7.690;2023-03-15T05:34:14;1.15;90.93
68609;SHT31;55581;46.718;7.690;2023-03-15T05:36:39;1.12;91.20
68609;SHT31;55581;46.718;7.690;2023-03-15T05:39:06;1.09;90.86
68609;SHT31;55581;46.718;7.690;2023-03-15T05:41:31;1.02;92.19
68609;SHT31;55581;46.718;7.690;2023-03-15T05:43:58;0.96;91.77
68609;SHT31;55581;46.718;7.690;2023-03-15T05:46:23;0.96;91.02
68609;SHT31;55581;46.718;7.690;2023-03-15T05:48:51;0.96;90.94
68609;SHT31;55581;46.718;7.690;2023-03-15T05:51:18;0.92;91.38
68609;SHT31;55581;46.718;7.690;2023-03-15T05:53:44;0.99;91.19
68609;SHT31;55581;46.718;7.690;2023-03-15T05:56:09;0.92;90.83
68609;SHT31;55581;46.718;7.690;2023-03-15T05:58:35;0.91;89.18
68609;SHT31;55581;46.718;7.690;2023-03-15T06:01:01;0.91;89.52
68609;SHT31;55581;46.718;7.690;2023-03-15T06:03:29;0.89;90.62
68609;SHT31;55581;46.718;7.690;2023-03-15T06:05:56;0.81;91.74
68609;SHT31;55581;46.718;7.690;2023-03-15T06:08:21;0.88;91.17
68609;SHT31;55581;46.718;7.690;2023-03-15T06:10:46;0.82;90.81
68609;SHT31;55581;46.718;7.690;2023-03-15T06:13:14;0.80;91.24
68609;SHT31;55581;46.718;7.690;2023-03-15T06:15:40;0.80;90.78
68609;SHT31;55581;46.718;7.690;2023-03-15T06:18:05;0.80;90.80
68609;SHT31;55581;46.718;7.690;2023-03-15T06:20:31;0.80;90.62
68609;SHT31;55581;46.718;7.690;2023-03-15T06:22:57;0.80;90.03
68609;SHT31;55581;46.718;7.690;2023-03-15T06:25:22;0.81;90.47
68609;SHT31;55581;46.718;7.690;2023-03-15T06:27:48;0.82;89.74
68609;SHT31;55581;46.718;7.690;2023-03-15T06:30:13;0.84;90.11
68609;SHT31;55581;46.718;7.690;2023-03-15T06:32:41;0.81;91.27
68609;SHT31;55581;46.718;7.690;2023-03-15T06:35:07;0.77;90.91
68609;SHT31;55581;46.718;7.690;2023-03-15T06:37:33;0.74;91.22
68609;SHT31;55581;46.718;7.690;2023-03-15T06:40:02;0.72;90.47
68609;SHT31;55581;46.718;7.690;2023-03-15T06:42:31;0.75;90.03
68609;SHT31;55581;46.718;7.690;2023-03-15T06:44:56;0.78;89.90
68609;SHT31;55581;46.718;7.690;2023-03-15T06:47:22;0.81;90.20
68609;SHT31;55581;46.718;7.690;2023-03-15T06:49:48;0.81;89.87
68609;SHT31;55581;46.718;7.690;2023-03-15T06:52:19;0.88;89.16
68609;SHT31;55581;46.718;7.690;2023-03-15T06:54:45;0.88;89.12
68609;SHT31;55581;46.718;7.690;2023-03-15T06:57:10;0.89;89.42
68609;SHT31;55581;46.718;7.690;2023-03-15T06:59:36;0.88;90.53
68609;SHT31;55581;46.718;7.690;2023-03-15T07:02:04;0.88;90.81
68609;SHT31;55581;46.718;7.690;2023-03-15T07:04:31;0.88;90.89
68609;SHT31;55581;46.718;7.690;2023-03-15T07:06:57;0.99;91.92
68609;SHT31;55581;46.718;7.690;2023-03-15T07:09:22;1.06;92.24
68609;SHT31;55581;46.718;7.690;2023-03-15T07:11:47;1.09;90.29
68609;SHT31;55581;46.718;7.690;2023-03-15T07:14:13;1.26;88.87
68609;SHT31;55581;46.718;7.690;2023-03-15T07:16:39;1.46;89.90
68609;SHT31;55581;46.718;7.690;2023-03-15T07:19:04;1.65;88.50
68609;SHT31;55581;46.718;7.690;2023-03-15T07:21:30;1.78;86.50
68609;SHT31;55581;46.718;7.690;2023-03-15T07:23:57;1.86;85.95
68609;SHT31;55581;46.718;7.690;2023-03-15T07:26:23;2.05;86.22
68609;SHT31;55581;46.718;7.690;2023-03-15T07:28:48;2.20;85.94
68609;SHT31;55581;46.718;7.690;2023-03-15T07:31:14;2.34;85.38
68609;SHT31;55581;46.718;7.690;2023-03-15T07:33:39;2.49;86.78
68609;SHT31;55581;46.718;7.690;2023-03-15T07:36:06;2.39;87.06
68609;SHT31;55581;46.718;7.690;2023-03-15T07:38:32;2.51;86.84
68609;SHT31;55581;46.718;7.690;2023-03-15T07:41:01;2.68;87.08
68609;SHT31;55581;46.718;7.690;2023-03-15T07:43:26;2.80;85.50
68609;SHT31;55581;46.718;7.690;2023-03-15T07:45:53;2.92;85.61
68609;SHT31;55581;46.718;7.690;2023-03-15T07:48:21;2.98;85.85
68609;SHT31;55581;46.718;7.690;2023-03-15T07:50:47;3.04;85.78
68609;SHT31;55581;46.718;7.690;2023-03-15T07:53:12;3.19;85.61
68609;SHT31;55581;46.718;7.690;2023-03-15T07:55:38;3.37;84.50
68609;SHT31;55581;46.718;7.690;2023-03-15T07:58:03;3.42;83.77
68609;SHT31;55581;46.718;7.690;2023-03-15T08:00:30;3.54;84.56
68609;SHT31;55581;46.718;7.690;2023-03-15T08:02:56;3.75;82.45
68609;SHT31;55581;46.718;7.690;2023-03-15T08:05:21;3.92;82.09
68609;SHT31;55581;46.718;7.690;2023-03-15T08:07:50;4.01;81.46
68609;SHT31;55581;46.718;7.690;2023-03-15T08:10:17;4.25;80.10
68609;SHT31;55581;46.718;7.690;2023-03-15T08:12:43;4.30;81.05
68609;SHT31;55581;46.718;7.690;2023-03-15T08:15:09;4.53;79.26
68609;SHT31;55581;46.718;7.690;2023-03-15T08:17:35;4.65;74.48
68609;SHT31;55581;46.718;7.690;2023-03-15T08:20:01;4.88;74.79
68609;SHT31;55581;46.718;7.690;2023-03-15T08:22:27;4.98;72.66
68609;SHT31;55581;46.718;7.690;2023-03-15T08:24:52;5.02;73.48
68609;SHT31;55581;46.718;7.690;2023-03-15T08:27:18;5.18;73.50
68609;SHT31;55581;46.718;7.690;2023-03-15T08:29:43;5.16;70.90
68609;SHT31;55581;46.718;7.690;2023-03-15T08:32:09;5.27;69.97
68609;SHT31;55581;46.718;7.690;2023-03-15T08:34:34;5.32;69.00
68609;SHT31;55581;46.718;7.690;2023-03-15T08:37:00;5.35;67.76
68609;SHT31;55581;46.718;7.690;2023-03-15T08:39:25;5.40;69.21
68609;SHT31;55581;46.718;7.690;2023-03-15T08:41:51;5.53;68.11
68609;SHT31;55581;46.718;7.690;2023-03-15T08:44:16;5.60;67.23
68609;SHT31;55581;46.718;7.690;2023-03-15T08:46:42;5.63;66.42
68609;SHT31;55581;46.718;7.690;2023-03-15T08:49:07;5.68;66.58
68609;SHT31;55581;46.718;7.690;2023-03-15T08:51:34;5.77;68.84
68609;SHT31;55581;46.718;7.690;2023-03-15T08:54:02;5.81;67.58
68609;SHT31;55581;46.718;7.690;2023-03-15T08:56:28;5.84;68.03
68609;SHT31;55581;46.718;7.690;2023-03-15T08:58:54;5.94;67.89
68609;SHT31;55581;46.718;7.690;2023-03-15T09:01:19;6.01;67.18
68609;SHT31;55581;46.718;7.690;2023-03-15T09:03:45;6.05;70.80
68609;SHT31;55581;46.718;7.690;2023-03-15T09:06:10;6.30;65.47
68609;SHT31;55581;46.718;7.690;2023-03-15T09:08:35;6.39;64.76
68609;SHT31;55581;46.718;7.690;2023-03-15T09:11:01;6.33;65.57
68609;SHT31;55581;46.718;7.690;2023-03-15T09:13:27;6.56;58.57
68609;SHT31;55581;46.718;7.690;2023-03-15T09:15:53;6.58;58.61
68609;SHT31;55581;46.718;7.690;2023-03-15T09:18:20;6.67;59.64
68609;SHT31;55581;46.718;7.690;2023-03-15T09:20:46;6.54;57.52
68609;SHT31;55581;46.718;7.690;2023-03-15T09:23:12;6.84;57.61
68609;SHT31;55581;46.718;7.690;2023-03-15T09:25:39;6.88;59.23
68609;SHT31;55581;46.718;7.690;2023-03-15T09:28:08;7.09;55.41
68609;SHT31;55581;46.718;7.690;2023-03-15T09:30:38;6.94;58.00
68609;SHT31;55581;46.718;7.690;2023-03-15T09:33:04;6.96;56.25
68609;SHT31;55581;46.718;7.690;2023-03-15T09:35:30;7.04;55.09
68609;SHT31;55581;46.718;7.690;2023-03-15T09:37:56;7.19;56.44
68609;SHT31;55581;46.718;7.690;2023-03-15T09:48:49;7.32;63.96
68609;SHT31;55581;46.718;7.690;2023-03-15T09:51:33;7.36;61.92
68609;SHT31;55581;46.718;7.690;2023-03-15T09:54:35;7.36;63.23
68609;SHT31;55581;46.718;7.690;2023-03-15T09:57:17;7.39;63.24
68609;SHT31;55581;46.718;7.690;2023-03-15T09:59:48;7.47;62.98
68609;SHT31;55581;46.718;7.690;2023-03-15T10:02:28;7.46;61.54
68609;SHT31;55581;46.718;7.690;2023-03-15T10:04:58;7.68;62.85
68609;SHT31;55581;46.718;7.690;2023-03-15T10:07:25;7.51;59.75
68609;SHT31;55581;46.718;7.690;2023-03-15T10:09:50;7.59;57.92
68609;SHT31;55581;46.718;7.690;2023-03-15T10:12:28;7.81;60.30
68609;SHT31;55581;46.718;7.690;2023-03-15T10:15:20;7.82;58.59
68609;SHT31;55581;46.718;7.690;2023-03-15T10:20:26;7.91;60.87
68609;SHT31;55581;46.718;7.690;2023-03-15T10:23:04;7.85;58.06
68609;SHT31;55581;46.718;7.690;2023-03-15T10:25:37;7.85;60.30
68609;SHT31;55581;46.718;7.690;2023-03-15T10:30:36;8.10;59.64
68609;SHT31;55581;46.718;7.690;2023-03-15T10:35:33;7.89;56.55
68609;SHT31;55581;46.718;7.690;2023-03-15T10:38:01;7.84;57.29
68609;SHT31;55581;46.718;7.690;2023-03-15T10:40:47;7.67;58.45
68609;SHT31;55581;46.718;7.690;2023-03-15T10:43:26;7.81;56.76
68609;SHT31;55581;46.718;7.690;2023-03-15T10:46:05;7.99;59.21
68609;SHT31;55581;46.718;7.690;2023-03-15T10:48:35;8.03;55.91
68609;SHT31;55581;46.718;7.690;2023-03-15T10:56:25;8.25;50.18
68609;SHT31;55581;46.718;7.690;2023-03-15T10:58:53;8.39;55.56
68609;SHT31;55581;46.718;7.690;2023-03-15T11:01:32;8.91;59.61
68609;SHT31;55581;46.718;7.690;2023-03-15T11:06:59;9.08;55.99
68609;SHT31;55581;46.718;7.690;2023-03-15T11:09:43;8.91;53.36
68609;SHT31;55581;46.718;7.690;2023-03-15T11:12:30;9.07;53.12
68609;SHT31;55581;46.718;7.690;2023-03-15T11:15:02;8.91;52.60
68609;SHT31;55581;46.718;7.690;2023-03-15T11:17:35;9.02;55.31
68609;SHT31;55581;46.718;7.690;2023-03-15T11:23:17;9.11;55.60
68609;SHT31;55581;46.718;7.690;2023-03-15T11:25:44;9.12;54.48
68609;SHT31;55581;46.718;7.690;2023-03-15T11:28:19;9.30;55.85
68609;SHT31;55581;46.718;7.690;2023-03-15T11:30:47;9.43;55.05
68609;SHT31;55581;46.718;7.690;2023-03-15T11:33:37;9.61;55.60
68609;SHT31;55581;46.718;7.690;2023-03-15T11:36:06;9.70;54.11
68609;SHT31;55581;46.718;7.690;2023-03-15T11:38:43;9.69;50.49
68609;SHT31;55581;46.718;7.690;2023-03-15T11:44:27;10.08;52.59
68609;SHT31;55581;46.718;7.690;2023-03-15T11:49:49;9.88;52.31
68609;SHT31;55581;46.718;7.690;2023-03-15T11:52:27;10.20;51.18
68609;SHT31;55581;46.718;7.690;2023-03-15T11:54:56;10.06;48.11
68609;SHT31;55581;46.718;7.690;2023-03-15T11:59:55;10.06;48.97
68609;SHT31;55581;46.718;7.690;2023-03-15T12:04:53;10.08;49.18
68609;SHT31;55581;46.718;7.690;2023-03-15T12:22:50;10.26;48.60
68609;SHT31;55581;46.718;7.690;2023-03-15T12:25:34;10.36;46.55
68609;SHT31;55581;46.718;7.690;2023-03-15T12:28:06;10.45;43.61
68609;SHT31;55581;46.718;7.690;2023-03-15T12:30:42;10.22;43.13
68609;SHT31;55581;46.718;7.690;2023-03-15T12:33:17;10.09;45.93
68609;SHT31;55581;46.718;7.690;2023-03-15T12:35:43;10.06;44.54
68609;SHT31;55581;46.718;7.690;2023-03-15T12:38:15;9.94;44.23
68609;SHT31;55581;46.718;7.690;2023-03-15T12:43:14;9.91;43.21
68609;SHT31;55581;46.718;7.690;2023-03-15T12:45:43;10.20;43.33
68609;SHT31;55581;46.718;7.690;2023-03-15T12:56:33;11.16;45.97
68609;SHT31;55581;46.718;7.690;2023-03-15T12:59:12;11.35;43.58
68609;SHT31;55581;46.718;7.690;2023-03-15T13:01:39;11.50;44.42
68609;SHT31;55581;46.718;7.690;2023-03-15T13:04:08;11.71;42.41
68609;SHT31;55581;46.718;7.690;2023-03-15T13:06:51;11.65;42.93
68609;SHT31;55581;46.718;7.690;2023-03-15T13:15:51;11.05;37.84
68609;SHT31;55581;46.718;7.690;2023-03-15T13:18:21;11.16;41.22
68609;SHT31;55581;46.718;7.690;2023-03-15T13:23:31;11.28;38.26
68609;SHT31;55581;46.718;7.690;2023-03-15T13:26:23;11.39;39.08
68609;SHT31;55581;46.718;7.690;2023-03-15T13:29:15;11.14;37.60
68609;SHT31;55581;46.718;7.690;2023-03-15T13:31:45;11.15;38.51
68609;SHT31;55581;46.718;7.690;2023-03-15T13:34:18;11.26;39.07
68609;SHT31;55581;46.718;7.690;2023-03-15T13:36:49;11.07;37.63
68609;SHT31;55581;46.718;7.690;2023-03-15T13:39:18;11.35;39.90
68609;SHT31;55581;46.718;7.690;2023-03-15T13:41:45;11.33;41.92
68609;SHT31;55581;46.718;7.690;2023-03-15T13:44:21;11.46;41.54
68609;SHT31;55581;46.718;7.690;2023-03-15T13:46:51;11.63;42.21
68609;SHT31;55581;46.718;7.690;2023-03-15T13:49:18;11.71;40.48
68609;SHT31;55581;46.718;7.690;2023-03-15T13:51:44;11.73;41.13
68609;SHT31;55581;46.718;7.690;2023-03-15T13:56:53;11.83;41.88
68609;SHT31;55581;46.718;7.690;2023-03-15T13:59:21;11.88;39.94
68609;SHT31;55581;46.718;7.690;2023-03-15T14:01:48;11.94;40.51
68609;SHT31;55581;46.718;7.690;2023-03-15T14:04:18;12.10;39.33
68609;SHT31;55581;46.718;7.690;2023-03-15T14:06:45;12.12;38.03
68609;SHT31;55581;46.718;7.690;2023-03-15T14:09:22;11.85;39.04
68609;SHT31;55581;46.718;7.690;2023-03-15T14:12:05;11.81;41.10
68609;SHT31;55581;46.718;7.690;2023-03-15T14:14:35;11.73;35.55
68609;SHT31;55581;46.718;7.690;2023-03-15T14:17:15;11.66;37.37
68609;SHT31;55581;46.718;7.690;2023-03-15T14:19:54;11.49;35.09
68609;SHT31;55581;46.718;7.690;2023-03-15T14:22:21;11.40;36.79
68609;SHT31;55581;46.718;7.690;2023-03-15T14:24:49;11.38;35.68
68609;SHT31;55581;46.718;7.690;2023-03-15T14:29:56;11.57;40.56
68609;SHT31;55581;46.718;7.690;2023-03-15T14:34:59;11.81;38.61
68609;SHT31;55581;46.718;7.690;2023-03-15T14:37:46;11.88;36.95
68609;SHT31;55581;46.718;7.690;2023-03-15T14:42:45;11.74;34.70
68609;SHT31;55581;46.718;7.690;2023-03-15T14:45:12;11.71;36.94
68609;SHT31;55581;46.718;7.690;2023-03-15T14:47:41;11.60;35.96
68609;SHT31;55581;46.718;7.690;2023-03-15T14:50:14;11.66;36.48
68609;SHT31;55581;46.718;7.690;2023-03-15T14:52:44;11.39;34.68
68609;SHT31;55581;46.718;7.690;2023-03-15T14:55:16;11.44;35.83
68609;SHT31;55581;46.718;7.690;2023-03-15T14:57:44;11.42;34.23
68609;SHT31;55581;46.718;7.690;2023-03-15T15:00:14;11.42;34.21
68609;SHT31;55581;46.718;7.690;2023-03-15T15:02:42;11.32;34.26
68609;SHT31;55581;46.718;7.690;2023-03-15T15:05:27;11.39;33.49
68609;SHT31;55581;46.718;7.690;2023-03-15T15:08:13;11.36;34.89
68609;SHT31;55581;46.718;7.690;2023-03-15T15:10:40;11.30;32.83
68609;SHT31;55581;46.718;7.690;2023-03-15T15:13:08;11.15;33.65
68609;SHT31;55581;46.718;7.690;2023-03-15T15:15:36;11.19;33.24
68609;SHT31;55581;46.718;7.690;2023-03-15T15:18:01;11.28;34.42
68609;SHT31;55581;46.718;7.690;2023-03-15T15:20:28;11.36;35.03
68609;SHT31;55581;46.718;7.690;2023-03-15T15:22:54;11.26;36.13
68609;SHT31;55581;46.718;7.690;2023-03-15T15:25:22;11.28;35.04
68609;SHT31;55581;46.718;7.690;2023-03-15T15:27:54;11.39;36.39
68609;SHT31;55581;46.718;7.690;2023-03-15T15:30:23;11.50;36.66
68609;SHT31;55581;46.718;7.690;2023-03-15T15:32:50;11.52;36.75
68609;SHT31;55581;46.718;7.690;2023-03-15T15:35:18;11.42;35.92
68609;SHT31;55581;46.718;7.690;2023-03-15T15:37:47;11.29;36.83
68609;SHT31;55581;46.718;7.690;2023-03-15T15:40:22;11.32;38.36
68609;SHT31;55581;46.718;7.690;2023-03-15T15:42:49;11.15;39.66
68609;SHT31;55581;46.718;7.690;2023-03-15T15:45:17;11.28;37.79
68609;SHT31;55581;46.718;7.690;2023-03-15T15:47:43;10.84;39.02
68609;SHT31;55581;46.718;7.690;2023-03-15T15:50:11;10.94;38.98
68609;SHT31;55581;46.718;7.690;2023-03-15T15:52:38;10.75;40.61
68609;SHT31;55581;46.718;7.690;2023-03-15T15:55:13;10.71;37.80
68609;SHT31;55581;46.718;7.690;2023-03-15T15:57:39;10.46;38.07
68609;SHT31;55581;46.718;7.690;2023-03-15T16:00:07;10.26;40.52
68609;SHT31;55581;46.718;7.690;2023-03-15T16:02:33;10.46;38.37
68609;SHT31;55581;46.718;7.690;2023-03-15T16:04:59;10.45;39.71
68609;SHT31;55581;46.718;7.690;2023-03-15T16:07:26;9.97;40.58
68609;SHT31;55581;46.718;7.690;2023-03-15T16:09:55;9.84;42.43
68609;SHT31;55581;46.718;7.690;2023-03-15T16:12:21;9.95;42.85
68609;SHT31;55581;46.718;7.690;2023-03-15T16:14:46;9.92;42.31
68609;SHT31;55581;46.718;7.690;2023-03-15T16:17:17;9.61;41.43
68609;SHT31;55581;46.718;7.690;2023-03-15T16:19:43;9.69;44.19
68609;SHT31;55581;46.718;7.690;2023-03-15T16:22:09;9.67;43.46
68609;SHT31;55581;46.718;7.690;2023-03-15T16:24:38;9.80;43.69
68609;SHT31;55581;46.718;7.690;2023-03-15T16:27:07;9.69;42.45
68609;SHT31;55581;46.718;7.690;2023-03-15T16:29:41;9.65;41.34
68609;SHT31;55581;46.718;7.690;2023-03-15T16:32:16;9.46;42.48
68609;SHT31;55581;46.718;7.690;2023-03-15T16:34:41;9.46;44.25
68609;SHT31;55581;46.718;7.690;2023-03-15T16:37:22;9.27;44.45
68609;SHT31;55581;46.718;7.690;2023-03-15T16:39:49;9.22;45.80
68609;SHT31;55581;46.718;7.690;2023-03-15T16:42:16;9.23;42.02
68609;SHT31;55581;46.718;7.690;2023-03-15T16:44:45;8.95;42.04
68609;SHT31;55581;46.718;7.690;2023-03-15T16:47:10;8.77;43.61
68609;SHT31;55581;46.718;7.690;2023-03-15T16:49:37;8.70;44.06
68609;SHT31;55581;46.718;7.690;2023-03-15T16:52:05;8.65;44.01
68609;SHT31;55581;46.718;7.690;2023-03-15T16:54:31;8.60;44.61
68609;SHT31;55581;46.718;7.690;2023-03-15T16:56:57;8.50;44.41
68609;SHT31;55581;46.718;7.690;2023-03-15T16:59:25;8.44;44.37
68609;SHT31;55581;46.718;7.690;2023-03-15T17:01:51;8.33;44.75
68609;SHT31;55581;46.718;7.690;2023-03-15T17:04:17;8.21;44.38
68609;SHT31;55581;46.718;7.690;2023-03-15T17:06:43;8.12;45.39
68609;SHT31;55581;46.718;7.690;2023-03-15T17:09:14;8.06;45.12
68609;SHT31;55581;46.718;7.690;2023-03-15T17:11:42;7.95;44.57
68609;SHT31;55581;46.718;7.690;2023-03-15T17:14:14;7.75;47.14
68609;SHT31;55581;46.718;7.690;2023-03-15T17:16:40;7.71;47.27
68609;SHT31;55581;46.718;7.690;2023-03-15T17:19:13;7.63;51.35
68609;SHT31;55581;46.718;7.690;2023-03-15T17:21:40;7.56;48.78
68609;SHT31;55581;46.718;7.690;2023-03-15T17:24:10;7.33;54.62